sensor_id;sensor_type;location;lat;lon;timestamp;pressure;altitude;pressure_sealevel;temperature;humidity
44140;BME280;29803;51.048;4.686;2023-04-30T00:00:40;102250.69;;;7.91;100.00
44140;BME280;29803;51.048;4.686;2023-04-30T00:03:10;102250.81;;;7.90;100.00
44140;BME280;29803;51.048;4.686;2023-04-30T00:05:40;102260.00;;;7.86;100.00
44140;BME280;29803;51.048;4.686;2023-04-30T00:08:11;102269.22;;;7.82;100.00
44140;BME280;29803;51.048;4.686;2023-04-30T00:10:41;102251.09;;;7.74;100.00
44140;BME280;29803;51.048;4.686;2023-04-30T00:13:11;102256.00;;;7.67;100.00
44140;BME280;29803;51.048;4.686;2023-04-30T00:15:43;102254.03;;;7.58;100.00
44140;BME280;29803;51.048;4.686;2023-04-30T00:18:13;102258.97;;;7.51;100.00
44140;BME280;29803;51.048;4.686;2023-04-30T00:20:43;102257.47;;;7.47;100.00
44140;BME280;29803;51.048;4.686;2023-04-30T00:23:14;102257.91;;;7.41;100.00
44140;BME280;29803;51.048;4.686;2023-04-30T00:25:44;102249.50;;;7.35;100.00
44140;BME280;29803;51.048;4.686;2023-04-30T00:28:14;102245.56;;;7.27;100.00
44140;BME280;29803;51.048;4.686;2023-04-30T00:30:45;102253.06;;;7.22;100.00
44140;BME280;29803;51.048;4.686;2023-04-30T00:33:15;102252.66;;;7.16;100.00
44140;BME280;29803;51.048;4.686;2023-04-30T00:35:46;102250.44;;;7.10;100.00
44140;BME280;29803;51.048;4.686;2023-04-30T00:38:16;102251.94;;;7.01;100.00
44140;BME280;29803;51.048;4.686;2023-04-30T00:40:46;102245.00;;;6.86;100.00
44140;BME280;29803;51.048;4.686;2023-04-30T00:43:17;102244.16;;;6.72;100.00
44140;BME280;29803;51.048;4.686;2023-04-30T00:45:48;102252.81;;;6.63;100.00
44140;BME280;29803;51.048;4.686;2023-04-30T00:48:18;102252.28;;;6.58;100.00
44140;BME280;29803;51.048;4.686;2023-04-30T00:50:48;102246.19;;;6.56;100.00
44140;BME280;29803;51.048;4.686;2023-04-30T00:53:19;102252.47;;;6.55;100.00
44140;BME280;29803;51.048;4.686;2023-04-30T00:55:49;102254.50;;;6.52;100.00
44140;BME280;29803;51.048;4.686;2023-04-30T00:58:21;102257.41;;;6.48;100.00
44140;BME280;29803;51.048;4.686;2023-04-30T01:00:51;102258.56;;;6.44;100.00
44140;BME280;29803;51.048;4.686;2023-04-30T01:03:22;102259.91;;;6.37;100.00
44140;BME280;29803;51.048;4.686;2023-04-30T01:05:52;102254.16;;;6.31;100.00
44140;BME280;29803;51.048;4.686;2023-04-30T01:08:23;102255.31;;;6.27;100.00
44140;BME280;29803;51.048;4.686;2023-04-30T01:11:01;102250.22;;;6.23;100.00
44140;BME280;29803;51.048;4.686;2023-04-30T01:16:48;102253.06;;;6.20;100.00
44140;BME280;29803;51.048;4.686;2023-04-30T01:30:16;102257.94;;;5.87;100.00
44140;BME280;29803;51.048;4.686;2023-04-30T01:32:47;102259.22;;;5.81;100.00
44140;BME280;29803;51.048;4.686;2023-04-30T01:35:17;102252.06;;;5.82;100.00
44140;BME280;29803;51.048;4.686;2023-04-30T01:37:51;102260.91;;;5.82;100.00
44140;BME280;29803;51.048;4.686;2023-04-30T01:40:36;102253.16;;;5.79;100.00
44140;BME280;29803;51.048;4.686;2023-04-30T01:43:17;102263.25;;;5.74;100.00
44140;BME280;29803;51.048;4.686;2023-04-30T01:51:26;102268.16;;;5.80;100.00
44140;BME280;29803;51.048;4.686;2023-04-30T01:54:00;102255.41;;;5.85;100.00
44140;BME280;29803;51.048;4.686;2023-04-30T01:56:35;102254.66;;;5.83;100.00
44140;BME280;29803;51.048;4.686;2023-04-30T01:59:07;102250.47;;;5.79;100.00
44140;BME280;29803;51.048;4.686;2023-04-30T02:01:38;102259.50;;;5.77;100.00
44140;BME280;29803;51.048;4.686;2023-04-30T02:04:08;102254.09;;;5.78;100.00
44140;BME280;29803;51.048;4.686;2023-04-30T02:06:39;102249.28;;;5.70;100.00
44140;BME280;29803;51.048;4.686;2023-04-30T02:09:10;102251.50;;;5.64;100.00
44140;BME280;29803;51.048;4.686;2023-04-30T02:11:40;102257.97;;;5.60;100.00
44140;BME280;29803;51.048;4.686;2023-04-30T02:14:11;102259.41;;;5.51;100.00
44140;BME280;29803;51.048;4.686;2023-04-30T02:16:41;102258.28;;;5.41;100.00
44140;BME280;29803;51.048;4.686;2023-04-30T02:19:12;102263.91;;;5.36;100.00
44140;BME280;29803;51.048;4.686;2023-04-30T02:21:43;102254.78;;;5.26;100.00
44140;BME280;29803;51.048;4.686;2023-04-30T02:24:15;102264.03;;;5.20;100.00
44140;BME280;29803;51.048;4.686;2023-04-30T02:26:52;102264.31;;;5.16;100.00
44140;BME280;29803;51.048;4.686;2023-04-30T02:29:22;102268.09;;;5.12;100.00
44140;BME280;29803;51.048;4.686;2023-04-30T02:31:53;102266.41;;;5.11;100.00
44140;BME280;29803;51.048;4.686;2023-04-30T02:34:23;102261.94;;;5.11;100.00
44140;BME280;29803;51.048;4.686;2023-04-30T02:36:54;102253.97;;;5.11;100.00
44140;BME280;29803;51.048;4.686;2023-04-30T02:39:24;102254.91;;;5.10;100.00
44140;BME280;29803;51.048;4.686;2023-04-30T02:41:55;102253.22;;;5.09;100.00
44140;BME280;29803;51.048;4.686;2023-04-30T02:44:25;102258.53;;;5.09;100.00
44140;BME280;29803;51.048;4.686;2023-04-30T02:46:55;102265.78;;;5.07;100.00
44140;BME280;29803;51.048;4.686;2023-04-30T02:49:26;102255.59;;;5.00;100.00
44140;BME280;29803;51.048;4.686;2023-04-30T02:51:56;102256.84;;;4.94;100.00
44140;BME280;29803;51.048;4.686;2023-04-30T02:54:27;102258.81;;;4.90;100.00
44140;BME280;29803;51.048;4.686;2023-04-30T02:56:57;102260.63;;;4.90;100.00
44140;BME280;29803;51.048;4.686;2023-04-30T02:59:27;102254.56;;;4.88;100.00
44140;BME280;29803;51.048;4.686;2023-04-30T03:01:58;102256.44;;;4.86;100.00
44140;BME280;29803;51.048;4.686;2023-04-30T03:04:28;102261.00;;;4.84;100.00
44140;BME280;29803;51.048;4.686;2023-04-30T03:06:59;102258.47;;;4.82;100.00
44140;BME280;29803;51.048;4.686;2023-04-30T03:09:29;102249.59;;;4.82;100.00
44140;BME280;29803;51.048;4.686;2023-04-30T03:12:01;102258.47;;;4.82;100.00
44140;BME280;29803;51.048;4.686;2023-04-30T03:14:31;102253.13;;;4.82;100.00
44140;BME280;29803;51.048;4.686;2023-04-30T03:17:02;102255.03;;;4.80;100.00
44140;BME280;29803;51.048;4.686;2023-04-30T03:19:32;102258.81;;;4.76;100.00
44140;BME280;29803;51.048;4.686;2023-04-30T03:22:03;102256.16;;;4.76;100.00
44140;BME280;29803;51.048;4.686;2023-04-30T03:24:33;102260.63;;;4.76;100.00
44140;BME280;29803;51.048;4.686;2023-04-30T03:27:04;102261.16;;;4.66;100.00
44140;BME280;29803;51.048;4.686;2023-04-30T03:29:34;102254.44;;;4.61;100.00
44140;BME280;29803;51.048;4.686;2023-04-30T03:32:04;102249.38;;;4.56;100.00
44140;BME280;29803;51.048;4.686;2023-04-30T03:34:35;102254.81;;;4.55;100.00
44140;BME280;29803;51.048;4.686;2023-04-30T03:37:05;102254.13;;;4.51;100.00
44140;BME280;29803;51.048;4.686;2023-04-30T03:39:35;102257.75;;;4.50;100.00
44140;BME280;29803;51.048;4.686;2023-04-30T03:42:06;102254.13;;;4.51;100.00
44140;BME280;29803;51.048;4.686;2023-04-30T03:44:36;102252.31;;;4.52;100.00
44140;BME280;29803;51.048;4.686;2023-04-30T03:47:08;102246.16;;;4.51;100.00
44140;BME280;29803;51.048;4.686;2023-04-30T03:49:40;102247.97;;;4.51;100.00
44140;BME280;29803;51.048;4.686;2023-04-30T03:52:10;102249.88;;;4.49;100.00
44140;BME280;29803;51.048;4.686;2023-04-30T03:54:41;102244.56;;;4.49;100.00
44140;BME280;29803;51.048;4.686;2023-04-30T03:57:11;102249.03;;;4.48;100.00
44140;BME280;29803;51.048;4.686;2023-04-30T03:59:43;102254.41;;;4.47;100.00
44140;BME280;29803;51.048;4.686;2023-04-30T04:02:13;102256.31;;;4.45;100.00
44140;BME280;29803;51.048;4.686;2023-04-30T04:04:43;102255.56;;;4.43;100.00
44140;BME280;29803;51.048;4.686;2023-04-30T04:07:14;102264.66;;;4.38;100.00
44140;BME280;29803;51.048;4.686;2023-04-30T04:09:44;102262.97;;;4.37;100.00
44140;BME280;29803;51.048;4.686;2023-04-30T04:12:15;102262.00;;;4.38;100.00
44140;BME280;29803;51.048;4.686;2023-04-30T04:14:45;102260.09;;;4.40;100.00
44140;BME280;29803;51.048;4.686;2023-04-30T04:17:15;102257.28;;;4.44;100.00
44140;BME280;29803;51.048;4.686;2023-04-30T04:19:46;102258.88;;;4.46;100.00
44140;BME280;29803;51.048;4.686;2023-04-30T04:22:16;102262.31;;;4.48;100.00
44140;BME280;29803;51.048;4.686;2023-04-30T04:24:46;102253.38;;;4.49;100.00
44140;BME280;29803;51.048;4.686;2023-04-30T04:27:17;102263.91;;;4.51;100.00
44140;BME280;29803;51.048;4.686;2023-04-30T04:29:48;102263.91;;;4.51;100.00
44140;BME280;29803;51.048;4.686;2023-04-30T04:32:18;102259.53;;;4.50;100.00
44140;BME280;29803;51.048;4.686;2023-04-30T04:34:49;102266.56;;;4.51;100.00
44140;BME280;29803;51.048;4.686;2023-04-30T04:37:19;102261.25;;;4.51;100.00
44140;BME280;29803;51.048;4.686;2023-04-30T04:39:50;102264.69;;;4.53;100.00
44140;BME280;29803;51.048;4.686;2023-04-30T04:42:20;102270.94;;;4.52;100.00
44140;BME280;29803;51.048;4.686;2023-04-30T04:44:51;102275.31;;;4.53;100.00
44140;BME280;29803;51.048;4.686;2023-04-30T04:47:21;102270.84;;;4.53;100.00
44140;BME280;29803;51.048;4.686;2023-04-30T04:49:52;102274.25;;;4.55;100.00
44140;BME280;29803;51.048;4.686;2023-04-30T04:52:22;102277.59;;;4.59;100.00
44140;BME280;29803;51.048;4.686;2023-04-30T04:54:52;102281.13;;;4.74;100.00
44140;BME280;29803;51.048;4.686;2023-04-30T04:57:23;102278.78;;;4.83;100.00
44140;BME280;29803;51.048;4.686;2023-04-30T04:59:53;102281.91;;;4.90;100.00
44140;BME280;29803;51.048;4.686;2023-04-30T05:02:23;102283.53;;;4.92;100.00
44140;BME280;29803;51.048;4.686;2023-04-30T05:04:54;102286.09;;;4.94;100.00
44140;BME280;29803;51.048;4.686;2023-04-30T05:07:24;102290.44;;;4.95;100.00
44140;BME280;29803;51.048;4.686;2023-04-30T05:09:54;102296.22;;;5.02;100.00
44140;BME280;29803;51.048;4.686;2023-04-30T05:12:25;102296.44;;;5.13;100.00
44140;BME280;29803;51.048;4.686;2023-04-30T05:14:56;102295.88;;;5.22;100.00
44140;BME280;29803;51.048;4.686;2023-04-30T05:17:26;102291.00;;;5.29;100.00
44140;BME280;29803;51.048;4.686;2023-04-30T05:19:56;102302.00;;;5.37;100.00
44140;BME280;29803;51.048;4.686;2023-04-30T05:22:27;102299.63;;;5.46;100.00
44140;BME280;29803;51.048;4.686;2023-04-30T05:24:57;102301.63;;;5.57;100.00
44140;BME280;29803;51.048;4.686;2023-04-30T05:27:28;102296.53;;;5.67;100.00
44140;BME280;29803;51.048;4.686;2023-04-30T05:29:58;102290.44;;;5.79;100.00
44140;BME280;29803;51.048;4.686;2023-04-30T05:32:28;102289.34;;;5.96;100.00
44140;BME280;29803;51.048;4.686;2023-04-30T05:34:59;102290.81;;;6.14;100.00
44140;BME280;29803;51.048;4.686;2023-04-30T05:37:29;102289.56;;;6.33;100.00
44140;BME280;29803;51.048;4.686;2023-04-30T05:40:00;102296.31;;;6.51;100.00
44140;BME280;29803;51.048;4.686;2023-04-30T05:42:30;102297.91;;;6.66;100.00
44140;BME280;29803;51.048;4.686;2023-04-30T05:45:01;102295.03;;;6.82;100.00
44140;BME280;29803;51.048;4.686;2023-04-30T05:47:31;102289.41;;;6.99;100.00
44140;BME280;29803;51.048;4.686;2023-04-30T05:50:02;102299.59;;;7.31;100.00
44140;BME280;29803;51.048;4.686;2023-04-30T05:52:32;102296.69;;;7.84;100.00
44140;BME280;29803;51.048;4.686;2023-04-30T05:55:03;102291.63;;;8.51;100.00
44140;BME280;29803;51.048;4.686;2023-04-30T05:57:33;102300.72;;;9.17;100.00
44140;BME280;29803;51.048;4.686;2023-04-30T06:00:04;102292.00;;;9.81;100.00
44140;BME280;29803;51.048;4.686;2023-04-30T06:02:36;102286.69;;;10.34;100.00
44140;BME280;29803;51.048;4.686;2023-04-30T06:05:07;102289.25;;;10.77;100.00
44140;BME280;29803;51.048;4.686;2023-04-30T06:07:37;102281.38;;;10.85;100.00
44140;BME280;29803;51.048;4.686;2023-04-30T06:10:08;102283.78;;;11.19;100.00
44140;BME280;29803;51.048;4.686;2023-04-30T06:12:39;102289.44;;;11.16;100.00
44140;BME280;29803;51.048;4.686;2023-04-30T06:15:09;102292.91;;;11.37;100.00
44140;BME280;29803;51.048;4.686;2023-04-30T06:17:40;102283.34;;;11.54;100.00
44140;BME280;29803;51.048;4.686;2023-04-30T06:20:10;102276.03;;;11.66;100.00
44140;BME280;29803;51.048;4.686;2023-04-30T06:22:41;102271.16;;;12.10;100.00
44140;BME280;29803;51.048;4.686;2023-04-30T06:25:11;102274.50;;;12.51;100.00
44140;BME280;29803;51.048;4.686;2023-04-30T06:27:42;102277.06;;;12.99;100.00
44140;BME280;29803;51.048;4.686;2023-04-30T06:30:12;102279.47;;;13.39;100.00
44140;BME280;29803;51.048;4.686;2023-04-30T06:32:43;102283.22;;;13.19;100.00
44140;BME280;29803;51.048;4.686;2023-04-30T06:35:13;102279.69;;;13.18;100.00
44140;BME280;29803;51.048;4.686;2023-04-30T06:37:43;102278.78;;;13.37;100.00
44140;BME280;29803;51.048;4.686;2023-04-30T06:40:14;102285.00;;;13.65;100.00
44140;BME280;29803;51.048;4.686;2023-04-30T06:42:45;102284.66;;;13.96;100.00
44140;BME280;29803;51.048;4.686;2023-04-30T06:45:15;102280.41;;;14.29;100.00
44140;BME280;29803;51.048;4.686;2023-04-30T06:47:46;102280.66;;;14.36;100.00
44140;BME280;29803;51.048;4.686;2023-04-30T06:50:17;102288.44;;;14.83;100.00
44140;BME280;29803;51.048;4.686;2023-04-30T06:52:50;102284.91;;;14.90;100.00
44140;BME280;29803;51.048;4.686;2023-04-30T06:55:21;102293.63;;;15.02;100.00
44140;BME280;29803;51.048;4.686;2023-04-30T06:57:51;102292.78;;;15.01;100.00
44140;BME280;29803;51.048;4.686;2023-04-30T07:00:23;102297.44;;;15.25;100.00
44140;BME280;29803;51.048;4.686;2023-04-30T07:02:53;102291.78;;;15.45;100.00
44140;BME280;29803;51.048;4.686;2023-04-30T07:05:26;102285.88;;;16.00;100.00
44140;BME280;29803;51.048;4.686;2023-04-30T07:07:56;102288.28;;;16.19;100.00
44140;BME280;29803;51.048;4.686;2023-04-30T07:10:27;102280.97;;;16.36;100.00
44140;BME280;29803;51.048;4.686;2023-04-30T07:12:57;102280.81;;;16.54;100.00
44140;BME280;29803;51.048;4.686;2023-04-30T07:15:28;102274.72;;;16.36;100.00
44140;BME280;29803;51.048;4.686;2023-04-30T07:17:58;102274.19;;;16.56;100.00
44140;BME280;29803;51.048;4.686;2023-04-30T07:20:29;102278.06;;;16.87;100.00
44140;BME280;29803;51.048;4.686;2023-04-30T07:22:59;102272.31;;;16.81;100.00
44140;BME280;29803;51.048;4.686;2023-04-30T07:25:29;102269.84;;;16.72;100.00
44140;BME280;29803;51.048;4.686;2023-04-30T07:28:00;102267.47;;;17.16;100.00
44140;BME280;29803;51.048;4.686;2023-04-30T07:30:30;102263.06;;;17.23;100.00
44140;BME280;29803;51.048;4.686;2023-04-30T07:33:01;102269.16;;;17.56;100.00
44140;BME280;29803;51.048;4.686;2023-04-30T07:35:32;102272.88;;;17.64;100.00
44140;BME280;29803;51.048;4.686;2023-04-30T07:38:02;102268.59;;;18.00;100.00
44140;BME280;29803;51.048;4.686;2023-04-30T07:40:37;102265.88;;;18.00;100.00
44140;BME280;29803;51.048;4.686;2023-04-30T07:43:07;102265.09;;;18.15;100.00
44140;BME280;29803;51.048;4.686;2023-04-30T07:45:38;102261.53;;;18.14;100.00
44140;BME280;29803;51.048;4.686;2023-04-30T07:48:08;102265.75;;;17.94;100.00
44140;BME280;29803;51.048;4.686;2023-04-30T07:50:38;102262.75;;;17.89;100.00
44140;BME280;29803;51.048;4.686;2023-04-30T07:53:09;102264.00;;;18.01;100.00
44140;BME280;29803;51.048;4.686;2023-04-30T07:55:39;102261.06;;;17.88;100.00
44140;BME280;29803;51.048;4.686;2023-04-30T07:58:10;102264.78;;;18.47;100.00
44140;BME280;29803;51.048;4.686;2023-04-30T08:00:41;102261.63;;;18.96;100.00
44140;BME280;29803;51.048;4.686;2023-04-30T08:03:11;102266.28;;;19.32;100.00
44140;BME280;29803;51.048;4.686;2023-04-30T08:05:41;102272.75;;;19.46;100.00
44140;BME280;29803;51.048;4.686;2023-04-30T08:08:12;102273.03;;;18.77;100.00
44140;BME280;29803;51.048;4.686;2023-04-30T08:10:42;102272.50;;;18.96;100.00
44140;BME280;29803;51.048;4.686;2023-04-30T08:13:12;102271.63;;;19.40;100.00
44140;BME280;29803;51.048;4.686;2023-04-30T08:15:43;102266.81;;;19.42;100.00
44140;BME280;29803;51.048;4.686;2023-04-30T08:18:13;102264.16;;;19.78;100.00
44140;BME280;29803;51.048;4.686;2023-04-30T08:20:44;102261.56;;;19.40;100.00
44140;BME280;29803;51.048;4.686;2023-04-30T08:23:14;102266.19;;;19.25;100.00
44140;BME280;29803;51.048;4.686;2023-04-30T08:25:46;102270.06;;;19.01;100.00
44140;BME280;29803;51.048;4.686;2023-04-30T08:28:16;102260.22;;;19.00;100.00
44140;BME280;29803;51.048;4.686;2023-04-30T08:30:50;102267.25;;;19.24;100.00
44140;BME280;29803;51.048;4.686;2023-04-30T08:33:20;102259.66;;;19.71;100.00
44140;BME280;29803;51.048;4.686;2023-04-30T08:35:50;102256.75;;;19.72;100.00
44140;BME280;29803;51.048;4.686;2023-04-30T08:38:21;102255.31;;;19.76;100.00
44140;BME280;29803;51.048;4.686;2023-04-30T08:40:54;102261.81;;;19.97;100.00
44140;BME280;29803;51.048;4.686;2023-04-30T08:43:25;102255.34;;;20.19;100.00
44140;BME280;29803;51.048;4.686;2023-04-30T08:45:59;102252.09;;;20.09;100.00
44140;BME280;29803;51.048;4.686;2023-04-30T08:48:30;102255.53;;;19.75;100.00
44140;BME280;29803;51.048;4.686;2023-04-30T08:51:01;102261.59;;;19.77;100.00
44140;BME280;29803;51.048;4.686;2023-04-30T08:56:21;102262.22;;;19.42;100.00
44140;BME280;29803;51.048;4.686;2023-04-30T08:58:51;102262.41;;;19.41;100.00
44140;BME280;29803;51.048;4.686;2023-04-30T09:01:21;102249.84;;;19.40;100.00
44140;BME280;29803;51.048;4.686;2023-04-30T09:03:52;102251.25;;;20.08;100.00
44140;BME280;29803;51.048;4.686;2023-04-30T09:06:23;102252.16;;;20.15;100.00
44140;BME280;29803;51.048;4.686;2023-04-30T09:08:53;102248.81;;;20.13;100.00
44140;BME280;29803;51.048;4.686;2023-04-30T09:11:26;102235.97;;;20.57;100.00
44140;BME280;29803;51.048;4.686;2023-04-30T09:13:57;102245.31;;;21.10;100.00
44140;BME280;29803;51.048;4.686;2023-04-30T09:16:28;102241.09;;;21.08;100.00
44140;BME280;29803;51.048;4.686;2023-04-30T09:19:01;102242.47;;;20.90;100.00
44140;BME280;29803;51.048;4.686;2023-04-30T09:21:33;102246.91;;;20.98;100.00
44140;BME280;29803;51.048;4.686;2023-04-30T09:24:04;102238.13;;;20.40;100.00
44140;BME280;29803;51.048;4.686;2023-04-30T09:26:36;102237.84;;;20.84;100.00
44140;BME280;29803;51.048;4.686;2023-04-30T09:29:06;102235.63;;;21.08;100.00
44140;BME280;29803;51.048;4.686;2023-04-30T09:31:37;102230.63;;;21.11;100.00
44140;BME280;29803;51.048;4.686;2023-04-30T09:34:08;102232.53;;;20.76;100.00
44140;BME280;29803;51.048;4.686;2023-04-30T09:39:27;102221.03;;;20.53;100.00
44140;BME280;29803;51.048;4.686;2023-04-30T09:42:08;102223.84;;;21.01;100.00
44140;BME280;29803;51.048;4.686;2023-04-30T09:44:39;102225.06;;;20.91;100.00
44140;BME280;29803;51.048;4.686;2023-04-30T09:47:10;102228.09;;;21.10;100.00
44140;BME280;29803;51.048;4.686;2023-04-30T09:49:43;102229.59;;;20.78;100.00
44140;BME280;29803;51.048;4.686;2023-04-30T09:52:17;102230.59;;;21.05;100.00
44140;BME280;29803;51.048;4.686;2023-04-30T09:54:47;102223.19;;;20.92;100.00
44140;BME280;29803;51.048;4.686;2023-04-30T09:57:18;102225.16;;;21.11;100.00
44140;BME280;29803;51.048;4.686;2023-04-30T09:59:51;102219.06;;;21.57;100.00
44140;BME280;29803;51.048;4.686;2023-04-30T10:02:21;102219.13;;;22.04;100.00
44140;BME280;29803;51.048;4.686;2023-04-30T10:04:53;102220.66;;;22.19;100.00
44140;BME280;29803;51.048;4.686;2023-04-30T10:07:25;102216.72;;;21.48;100.00
44140;BME280;29803;51.048;4.686;2023-04-30T10:12:33;102206.03;;;20.63;95.94
44140;BME280;29803;51.048;4.686;2023-04-30T10:15:09;102203.06;;;20.37;100.00
44140;BME280;29803;51.048;4.686;2023-04-30T10:17:40;102201.00;;;19.89;100.00
44140;BME280;29803;51.048;4.686;2023-04-30T10:20:11;102199.22;;;20.25;100.00
44140;BME280;29803;51.048;4.686;2023-04-30T10:22:42;102197.97;;;20.49;96.84
44140;BME280;29803;51.048;4.686;2023-04-30T10:25:13;102199.16;;;19.97;100.00
44140;BME280;29803;51.048;4.686;2023-04-30T10:27:45;102187.66;;;20.23;100.00
44140;BME280;29803;51.048;4.686;2023-04-30T10:30:15;102180.47;;;20.43;100.00
44140;BME280;29803;51.048;4.686;2023-04-30T10:35:34;102184.03;;;20.72;99.42
44140;BME280;29803;51.048;4.686;2023-04-30T10:38:09;102178.03;;;20.27;93.86
44140;BME280;29803;51.048;4.686;2023-04-30T10:40:44;102180.25;;;20.73;100.00
44140;BME280;29803;51.048;4.686;2023-04-30T10:43:16;102179.44;;;20.44;96.53
44140;BME280;29803;51.048;4.686;2023-04-30T10:45:47;102176.00;;;20.29;94.98
44140;BME280;29803;51.048;4.686;2023-04-30T10:48:20;102177.00;;;20.00;87.85
44140;BME280;29803;51.048;4.686;2023-04-30T10:50:55;102166.94;;;20.00;94.38
44140;BME280;29803;51.048;4.686;2023-04-30T10:53:28;102164.94;;;20.09;91.47
44140;BME280;29803;51.048;4.686;2023-04-30T10:56:01;102162.03;;;20.45;91.50
44140;BME280;29803;51.048;4.686;2023-04-30T10:58:50;102155.25;;;20.62;99.86
44140;BME280;29803;51.048;4.686;2023-04-30T11:01:22;102149.53;;;20.51;87.63
44140;BME280;29803;51.048;4.686;2023-04-30T11:04:04;102154.56;;;19.98;91.99
44140;BME280;29803;51.048;4.686;2023-04-30T11:17:42;102142.50;;;19.06;93.98
44140;BME280;29803;51.048;4.686;2023-04-30T11:20:13;102127.53;;;18.96;100.00
44140;BME280;29803;51.048;4.686;2023-04-30T11:22:44;102128.66;;;19.23;100.00
44140;BME280;29803;51.048;4.686;2023-04-30T11:28:03;102117.84;;;19.08;93.99
44140;BME280;29803;51.048;4.686;2023-04-30T11:30:34;102113.94;;;19.17;98.84
44140;BME280;29803;51.048;4.686;2023-04-30T11:33:05;102116.19;;;19.28;90.68
44140;BME280;29803;51.048;4.686;2023-04-30T11:35:36;102121.78;;;19.05;88.73
44140;BME280;29803;51.048;4.686;2023-04-30T11:38:07;102109.97;;;19.13;95.93
44140;BME280;29803;51.048;4.686;2023-04-30T11:40:38;102108.03;;;19.28;94.11
44140;BME280;29803;51.048;4.686;2023-04-30T11:43:20;102101.75;;;19.49;94.80
44140;BME280;29803;51.048;4.686;2023-04-30T11:46:03;102100.97;;;19.77;86.41
44140;BME280;29803;51.048;4.686;2023-04-30T11:48:36;102105.38;;;20.06;86.92
44140;BME280;29803;51.048;4.686;2023-04-30T11:53:55;102101.03;;;19.62;94.23
44140;BME280;29803;51.048;4.686;2023-04-30T11:56:26;102089.88;;;19.57;90.22
44140;BME280;29803;51.048;4.686;2023-04-30T11:58:56;102085.47;;;19.77;87.41
44140;BME280;29803;51.048;4.686;2023-04-30T12:01:27;102083.97;;;20.31;99.94
44140;BME280;29803;51.048;4.686;2023-04-30T12:03:57;102076.84;;;20.71;92.23
44140;BME280;29803;51.048;4.686;2023-04-30T12:06:28;102082.38;;;20.84;83.49
44140;BME280;29803;51.048;4.686;2023-04-30T12:08:59;102075.63;;;20.80;83.85
44140;BME280;29803;51.048;4.686;2023-04-30T12:11:30;102079.28;;;20.53;80.40
44140;BME280;29803;51.048;4.686;2023-04-30T12:14:02;102070.78;;;20.76;83.67
44140;BME280;29803;51.048;4.686;2023-04-30T12:19:20;102058.00;;;20.83;88.66
44140;BME280;29803;51.048;4.686;2023-04-30T12:21:51;102063.34;;;20.15;85.41
44140;BME280;29803;51.048;4.686;2023-04-30T12:24:24;102059.06;;;20.34;85.40
44140;BME280;29803;51.048;4.686;2023-04-30T12:26:58;102053.81;;;20.74;80.52
44140;BME280;29803;51.048;4.686;2023-04-30T12:29:28;102053.56;;;20.68;75.30
44140;BME280;29803;51.048;4.686;2023-04-30T12:31:58;102047.53;;;20.80;83.55
44140;BME280;29803;51.048;4.686;2023-04-30T12:34:32;102047.53;;;20.80;87.11
44140;BME280;29803;51.048;4.686;2023-04-30T12:37:02;102049.44;;;20.86;76.98
44140;BME280;29803;51.048;4.686;2023-04-30T12:39:33;102057.25;;;20.48;78.71
44140;BME280;29803;51.048;4.686;2023-04-30T12:42:04;102045.34;;;20.21;74.38
44140;BME280;29803;51.048;4.686;2023-04-30T12:47:24;102030.09;;;20.33;72.26
44140;BME280;29803;51.048;4.686;2023-04-30T12:49:54;102034.28;;;20.29;79.20
44140;BME280;29803;51.048;4.686;2023-04-30T12:52:25;102032.16;;;20.24;74.51
44140;BME280;29803;51.048;4.686;2023-04-30T12:54:55;102030.97;;;20.33;74.20
44140;BME280;29803;51.048;4.686;2023-04-30T12:57:26;102025.59;;;20.53;82.32
44140;BME280;29803;51.048;4.686;2023-04-30T13:02:28;102022.03;;;20.53;80.47
44140;BME280;29803;51.048;4.686;2023-04-30T13:05:01;102030.66;;;20.22;78.48
44140;BME280;29803;51.048;4.686;2023-04-30T13:10:19;102008.22;;;20.54;82.80
44140;BME280;29803;51.048;4.686;2023-04-30T13:12:52;102014.19;;;20.84;84.40
44140;BME280;29803;51.048;4.686;2023-04-30T13:15:22;102009.41;;;20.45;74.94
44140;BME280;29803;51.048;4.686;2023-04-30T13:17:53;102006.34;;;20.68;78.30
44140;BME280;29803;51.048;4.686;2023-04-30T13:20:23;101996.19;;;21.30;83.82
44140;BME280;29803;51.048;4.686;2023-04-30T13:22:55;101998.31;;;21.48;83.26
44140;BME280;29803;51.048;4.686;2023-04-30T13:25:25;102007.69;;;20.79;76.40
44140;BME280;29803;51.048;4.686;2023-04-30T13:27:56;102006.75;;;20.17;77.59
44140;BME280;29803;51.048;4.686;2023-04-30T13:30:26;101992.88;;;20.05;84.27
44140;BME280;29803;51.048;4.686;2023-04-30T13:32:57;101992.28;;;20.10;78.05
44140;BME280;29803;51.048;4.686;2023-04-30T13:35:30;101986.06;;;20.29;78.23
44140;BME280;29803;51.048;4.686;2023-04-30T13:38:01;101979.63;;;20.43;79.02
44140;BME280;29803;51.048;4.686;2023-04-30T13:40:31;101971.53;;;20.57;83.17
44140;BME280;29803;51.048;4.686;2023-04-30T13:43:02;101971.13;;;20.73;81.62
44140;BME280;29803;51.048;4.686;2023-04-30T13:45:33;101986.69;;;20.79;86.24
44140;BME280;29803;51.048;4.686;2023-04-30T13:48:03;101977.41;;;20.60;79.63
44140;BME280;29803;51.048;4.686;2023-04-30T13:50:34;101977.88;;;20.77;75.48
44140;BME280;29803;51.048;4.686;2023-04-30T13:53:05;101978.69;;;20.71;84.39
44140;BME280;29803;51.048;4.686;2023-04-30T13:55:36;101966.56;;;20.80;75.16
44140;BME280;29803;51.048;4.686;2023-04-30T13:58:06;101961.72;;;20.76;89.35
44140;BME280;29803;51.048;4.686;2023-04-30T14:00:36;101964.84;;;20.66;87.96
44140;BME280;29803;51.048;4.686;2023-04-30T14:05:37;101965.00;;;20.51;79.29
44140;BME280;29803;51.048;4.686;2023-04-30T14:08:08;101948.47;;;20.66;82.22